Elbridge, Tennessee
Current Conditions -  °F | °C
As of 8:35 AM on Thursday 18 Dec 2014 (Local Time) from KDYR Reporting Station
Overcast Overcast  
Wind Chill: 36°   Ceiling: 600
Heat Index: 36°   Visibility: 10mi
Dew Point: 25°   Wind: 0mph
Humidity: 65%   Direction: NA
Pressure: 30.29"   Gusts: NA
Location:  36.2603°N, 89.3219°W
Report Text: KDYR 181435Z 00000KT 10SM BKN006 OVC050 02/M04 A3029 RMK AO1
Loading
Personal Weather Stations






























Interactive Weather Map New forecast layout! Learn more

10-Day Weather Forecast

Advertisements
Track Severe Weather on mobile